Time;durP1;ratioP1;P1;durP2;ratioP2;P2;SDS_P1;SDS_P2;PMS_P1;PMS_P2;Temp;Humidity;BMP_temperature;BMP_pressure;BME280_temperature;BME280_humidity;BME280_pressure;Samples;Min_cycle;Max_cycle;Signal;HPM_P1;HPM_P2
2021/03/11 00:01:57;;;;;;;4.25;3.50;;;20.60;48.50;;;;;;5077747;28;20317;-39
2021/03/11 00:04:23;;;;;;;4.57;3.38;;;20.60;48.50;;;;;;5087464;28;20045;-38
2021/03/11 00:06:49;;;;;;;5.72;3.65;;;20.60;48.40;;;;;;5065513;28;20039;-39
2021/03/11 00:09:16;;;;;;;5.05;3.42;;;20.60;48.20;;;;;;5084232;28;20067;-39
2021/03/11 00:11:42;;;;;;;3.88;3.25;;;20.60;48.00;;;;;;5084666;28;20025;-39
2021/03/11 00:14:08;;;;;;;5.07;3.42;;;20.60;47.90;;;;;;5084217;28;20070;-39
2021/03/11 00:16:34;;;;;;;5.70;4.07;;;20.60;47.90;;;;;;5084228;28;20044;-39
2021/03/11 00:19:00;;;;;;;4.78;3.40;;;20.50;47.90;;;;;;5083905;28;20038;-39
2021/03/11 00:21:26;;;;;;;4.75;3.22;;;20.50;47.80;;;;;;5084285;28;20020;-39
2021/03/11 00:23:53;;;;;;;4.68;3.67;;;20.50;47.80;;;;;;5084313;28;20462;-38
2021/03/11 00:26:19;;;;;;;5.45;3.53;;;20.50;47.80;;;;;;5083836;28;20032;-39
2021/03/11 00:28:45;;;;;;;4.85;3.30;;;20.50;48.40;;;;;;5084098;28;20017;-39
2021/03/11 00:31:11;;;;;;;4.20;3.50;;;20.50;47.90;;;;;;5081392;28;20029;-39
2021/03/11 00:33:37;;;;;;;4.82;3.38;;;20.40;47.80;;;;;;5093705;28;20035;-39
2021/03/11 00:36:20;;;;;;;3.78;3.13;;;20.40;47.70;;;;;;5104209;28;20054;-39
2021/03/11 00:38:48;;;;;;;5.38;3.38;;;20.40;47.70;;;;;;5095716;28;20048;-39
2021/03/11 00:41:14;;;;;;;4.70;3.15;;;20.40;47.60;;;;;;5099133;28;20025;-39
2021/03/11 00:43:41;;;;;;;4.72;3.25;;;20.40;47.60;;;;;;5070460;28;20025;-39
2021/03/11 00:46:07;;;;;;;7.90;3.35;;;20.40;47.50;;;;;;5083519;28;20040;-39
2021/03/11 00:48:33;;;;;;;3.50;3.20;;;20.40;47.50;;;;;;5094002;28;20036;-39
2021/03/11 00:50:59;;;;;;;3.92;3.38;;;20.40;47.50;;;;;;5089207;28;20047;-39
2021/03/11 00:53:25;;;;;;;5.50;3.28;;;20.40;47.50;;;;;;5100093;28;20028;-39
2021/03/11 00:55:51;;;;;;;4.85;3.58;;;20.30;47.50;;;;;;5088020;28;20039;-39
2021/03/11 00:58:17;;;;;;;3.58;2.92;;;20.30;47.70;;;;;;5094693;28;20036;-40
2021/03/11 01:00:44;;;;;;;4.57;3.42;;;20.30;47.60;;;;;;5077073;28;20077;-39
2021/03/11 01:03:10;;;;;;;4.03;3.22;;;20.30;47.50;;;;;;5088534;28;20382;-39
2021/03/11 01:05:36;;;;;;;5.57;3.60;;;20.30;47.60;;;;;;5069217;28;20037;-39
2021/03/11 01:08:02;;;;;;;4.43;3.40;;;20.20;47.60;;;;;;5097140;28;20046;-39
2021/03/11 01:10:28;;;;;;;3.92;2.97;;;20.20;47.60;;;;;;5092871;28;20047;-39
2021/03/11 01:12:54;;;;;;;4.05;3.22;;;20.20;47.80;;;;;;5089817;28;20029;-39
2021/03/11 01:15:21;;;;;;;4.47;3.30;;;20.20;47.80;;;;;;5099369;28;20096;-40
2021/03/11 01:17:47;;;;;;;3.45;3.13;;;20.20;47.90;;;;;;5086556;28;20024;-39
2021/03/11 01:20:22;;;;;;;3.53;3.10;;;20.10;47.80;;;;;;5092585;28;20092;-39
2021/03/11 01:22:48;;;;;;;3.60;3.10;;;20.10;47.90;;;;;;5095926;28;20022;-39
2021/03/11 01:25:14;;;;;;;3.78;3.28;;;20.10;47.80;;;;;;5086691;28;20060;-39
2021/03/11 01:27:41;;;;;;;3.42;3.00;;;20.10;47.90;;;;;;5099415;28;20028;-39
2021/03/11 01:30:07;;;;;;;3.28;2.97;;;20.00;47.60;;;;;;5089671;28;20020;-39
2021/03/11 01:32:34;;;;;;;3.72;3.15;;;20.00;47.60;;;;;;5093376;28;20035;-39
2021/03/11 01:35:00;;;;;;;5.85;3.35;;;20.00;47.50;;;;;;5056819;28;20028;-39
2021/03/11 01:37:26;;;;;;;4.60;2.85;;;20.00;47.50;;;;;;5082058;28;20024;-39
2021/03/11 01:39:52;;;;;;;3.58;3.05;;;20.00;47.30;;;;;;5097688;28;20028;-39
2021/03/11 01:42:18;;;;;;;3.33;2.90;;;20.00;47.20;;;;;;5079946;28;20030;-39
2021/03/11 01:44:45;;;;;;;5.18;3.70;;;19.90;47.10;;;;;;5072361;28;20028;-39
2021/03/11 01:47:11;;;;;;;3.22;2.70;;;19.90;47.30;;;;;;5082772;28;20067;-39
2021/03/11 01:49:37;;;;;;;5.72;2.90;;;19.90;47.20;;;;;;5082781;28;20035;-39
2021/03/11 01:52:04;;;;;;;4.57;3.65;;;19.90;47.40;;;;;;5083281;28;20497;-40
2021/03/11 01:54:30;;;;;;;4.07;3.10;;;19.80;47.30;;;;;;5064974;28;20016;-39
2021/03/11 01:56:56;;;;;;;3.35;2.90;;;19.80;47.40;;;;;;5048118;28;20462;-39
2021/03/11 01:59:22;;;;;;;3.40;3.10;;;19.80;47.40;;;;;;5048079;28;20036;-39
2021/03/11 02:01:49;;;;;;;3.53;3.08;;;19.80;47.50;;;;;;5075101;28;20032;-39
2021/03/11 02:04:15;;;;;;;3.45;3.05;;;19.80;47.40;;;;;;5062752;28;20029;-40
2021/03/11 02:06:41;;;;;;;3.08;2.67;;;19.70;47.50;;;;;;5062432;28;20033;-39
2021/03/11 02:09:07;;;;;;;4.57;3.38;;;19.70;47.40;;;;;;5062785;28;20086;-39
2021/03/11 02:11:33;;;;;;;4.03;3.10;;;19.70;47.30;;;;;;5062509;28;20025;-39
2021/03/11 02:14:06;;;;;;;3.65;2.90;;;19.70;47.40;;;;;;5044496;28;20037;-39
2021/03/11 02:16:34;;;;;;;4.32;3.10;;;19.60;47.40;;;;;;5062517;28;20021;-39
2021/03/11 02:19:13;;;;;;;3.70;3.05;;;19.60;47.40;;;;;;5028281;28;20033;-39
2021/03/11 02:22:19;;;;;;;4.03;3.25;;;19.60;47.40;;;;;;5044768;28;20036;-39
2021/03/11 02:25:02;;;;;;;3.33;2.90;;;19.60;47.40;;;;;;4969801;28;20023;-39
2021/03/11 02:28:02;;;;;;;3.92;3.15;;;19.50;47.50;;;;;;4966794;28;20043;-39
2021/03/11 02:30:28;;;;;;;3.63;3.00;;;19.50;47.50;;;;;;4984554;28;20134;-39
2021/03/11 02:32:57;;;;;;;3.47;3.17;;;19.50;47.40;;;;;;4965780;28;20742;-40
2021/03/11 02:35:23;;;;;;;5.30;3.20;;;19.50;47.50;;;;;;4986389;28;20107;-39
2021/03/11 02:37:51;;;;;;;3.50;3.00;;;19.40;47.50;;;;;;4992020;28;20043;-39
2021/03/11 02:40:20;;;;;;;4.55;3.17;;;19.50;47.60;;;;;;4984560;28;20106;-39
2021/03/11 02:43:46;;;;;;;4.15;3.42;;;19.50;47.60;;;;;;4984741;28;20174;-39
2021/03/11 02:46:12;;;;;;;3.58;3.03;;;19.40;47.50;;;;;;4971085;28;20042;-39
2021/03/11 02:48:38;;;;;;;3.58;2.97;;;19.40;47.60;;;;;;4983668;28;20038;-39
2021/03/11 02:51:08;;;;;;;3.80;3.10;;;19.30;47.60;;;;;;4987807;28;20042;-39
2021/03/11 02:53:37;;;;;;;3.78;3.17;;;19.30;47.70;;;;;;4987654;28;20048;-39
2021/03/11 02:56:03;;;;;;;4.32;3.60;;;19.30;47.70;;;;;;4972123;28;20065;-39
2021/03/11 02:58:29;;;;;;;4.95;3.53;;;19.30;47.70;;;;;;4994100;28;20036;-40
2021/03/11 03:00:56;;;;;;;4.07;3.25;;;19.20;47.70;;;;;;5046125;28;20059;-40
2021/03/11 03:03:22;;;;;;;5.00;3.33;;;19.20;47.80;;;;;;5056044;28;20486;-40
2021/03/11 03:05:49;;;;;;;4.40;3.28;;;19.20;47.70;;;;;;5046239;28;20036;-39
2021/03/11 03:08:16;;;;;;;3.88;3.42;;;19.20;47.80;;;;;;5046278;28;20052;-40
2021/03/11 03:10:42;;;;;;;3.55;3.13;;;19.10;47.90;;;;;;5062951;28;20024;-40
2021/03/11 03:13:13;;;;;;;3.78;3.25;;;19.10;47.80;;;;;;5063035;28;20077;-39
2021/03/11 03:15:39;;;;;;;4.65;3.55;;;19.10;47.80;;;;;;5046214;28;20043;-40
2021/03/11 03:18:05;;;;;;;4.43;3.45;;;19.10;47.80;;;;;;5062807;28;20048;-40
2021/03/11 03:20:32;;;;;;;5.03;3.50;;;19.10;47.90;;;;;;5097762;28;20044;-40
2021/03/11 03:22:59;;;;;;;3.63;3.20;;;19.10;47.90;;;;;;5086824;28;20016;-40
2021/03/11 03:25:25;;;;;;;4.45;3.75;;;19.00;47.80;;;;;;5071205;28;20024;-39
2021/03/11 03:27:51;;;;;;;4.70;3.72;;;19.00;47.90;;;;;;5105395;28;20084;-40
2021/03/11 03:30:18;;;;;;;4.28;3.80;;;19.00;48.00;;;;;;5105548;28;20145;-39
2021/03/11 03:32:45;;;;;;;5.25;3.95;;;19.00;48.00;;;;;;5090289;28;20028;-40
2021/03/11 03:35:11;;;;;;;4.10;3.42;;;18.90;47.90;;;;;;5085454;28;20037;-42
2021/03/11 03:37:37;;;;;;;5.40;3.40;;;18.90;48.00;;;;;;5077980;28;20016;-40
2021/03/11 03:40:05;;;;;;;4.00;3.60;;;18.90;48.00;;;;;;5065155;28;20037;-40
2021/03/11 03:42:32;;;;;;;3.95;3.45;;;18.90;48.10;;;;;;5065249;28;20032;-40
2021/03/11 03:44:59;;;;;;;4.07;3.40;;;18.80;48.10;;;;;;5046887;28;20549;-40
2021/03/11 03:47:25;;;;;;;4.20;3.43;;;18.80;48.10;;;;;;5056609;28;20059;-39
2021/03/11 03:49:51;;;;;;;4.35;3.72;;;18.80;48.20;;;;;;5030457;28;20312;-40
2021/03/11 03:52:17;;;;;;;4.93;4.00;;;18.70;48.20;;;;;;5064981;28;20029;-39
2021/03/11 03:54:43;;;;;;;4.35;3.72;;;18.70;48.20;;;;;;5030404;28;20037;-41
2021/03/11 03:57:16;;;;;;;4.90;3.70;;;18.70;48.20;;;;;;5064907;28;20025;-40
2021/03/11 03:59:43;;;;;;;4.35;3.72;;;18.70;48.20;;;;;;5030588;28;20029;-40
2021/03/11 04:02:12;;;;;;;4.05;3.63;;;18.70;48.20;;;;;;5064786;28;20401;-40
2021/03/11 04:04:42;;;;;;;4.35;3.70;;;18.60;48.20;;;;;;5046526;28;20088;-40
2021/03/11 04:07:12;;;;;;;3.83;3.42;;;18.60;48.30;;;;;;5047153;28;20032;-39
2021/03/11 04:09:39;;;;;;;3.97;3.38;;;18.60;48.30;;;;;;5046521;28;20049;-40
2021/03/11 04:12:06;;;;;;;4.15;3.50;;;18.60;48.40;;;;;;5046883;28;20028;-40
2021/03/11 04:14:32;;;;;;;3.72;3.13;;;18.60;48.50;;;;;;5077074;28;20039;-39
2021/03/11 04:16:58;;;;;;;4.05;3.53;;;18.50;48.30;;;;;;5049636;28;20031;-40
2021/03/11 04:19:25;;;;;;;4.88;3.72;;;18.60;48.40;;;;;;5084029;28;20083;-40
2021/03/11 04:21:51;;;;;;;4.25;3.58;;;18.50;48.50;;;;;;5066409;28;20504;-43
2021/03/11 04:24:18;;;;;;;4.30;3.60;;;18.50;48.40;;;;;;5084395;28;20040;-40
2021/03/11 04:26:44;;;;;;;4.20;3.20;;;18.50;48.50;;;;;;5059307;28;20046;-40
2021/03/11 04:29:10;;;;;;;4.35;3.55;;;18.40;48.40;;;;;;5051946;28;20028;-40
2021/03/11 04:31:37;;;;;;;4.65;3.80;;;18.40;48.50;;;;;;5078076;28;20025;-40
2021/03/11 04:34:03;;;;;;;4.40;3.55;;;18.40;48.50;;;;;;5029651;28;20029;-40
2021/03/11 04:36:30;;;;;;;4.45;3.45;;;18.40;48.50;;;;;;5035214;28;20116;-40
2021/03/11 04:38:56;;;;;;;5.03;3.87;;;18.40;48.60;;;;;;5076675;28;20039;-39
2021/03/11 04:41:22;;;;;;;4.65;3.53;;;18.40;48.60;;;;;;5064141;28;20025;-39
2021/03/11 04:43:48;;;;;;;4.60;3.45;;;18.30;48.60;;;;;;5083703;28;20032;-39
2021/03/11 04:46:15;;;;;;;5.10;3.80;;;18.30;48.70;;;;;;5083454;28;20055;-40
2021/03/11 04:48:41;;;;;;;3.75;3.28;;;18.20;48.60;;;;;;5049093;28;20055;-39
2021/03/11 04:51:07;;;;;;;4.63;3.70;;;18.20;48.70;;;;;;5065484;28;20386;-39
2021/03/11 04:53:33;;;;;;;4.68;3.78;;;18.20;48.80;;;;;;5065868;28;20041;-40
2021/03/11 04:56:00;;;;;;;4.63;3.58;;;18.20;48.80;;;;;;5083559;28;20128;-40
2021/03/11 04:58:28;;;;;;;3.80;3.08;;;18.20;48.90;;;;;;5065759;28;20056;-40
2021/03/11 05:00:54;;;;;;;4.72;3.50;;;18.10;48.80;;;;;;5083158;28;20108;-40
2021/03/11 05:03:20;;;;;;;4.57;3.58;;;18.10;48.80;;;;;;5045507;28;20017;-40
2021/03/11 05:05:46;;;;;;;4.50;3.88;;;18.10;48.90;;;;;;5045325;28;20043;-39
2021/03/11 05:08:12;;;;;;;5.75;3.58;;;18.10;48.90;;;;;;5063269;28;20027;-40
2021/03/11 05:10:39;;;;;;;4.40;3.55;;;18.10;49.00;;;;;;5063231;28;20055;-39
2021/03/11 05:13:06;;;;;;;4.00;3.60;;;18.00;49.00;;;;;;5064139;28;20025;-40
2021/03/11 05:15:34;;;;;;;4.95;3.95;;;18.00;49.00;;;;;;5083312;28;20080;-42
2021/03/11 05:18:00;;;;;;;4.72;3.80;;;18.00;49.10;;;;;;5082931;28;20032;-40
2021/03/11 05:20:27;;;;;;;4.13;3.60;;;18.00;49.20;;;;;;5083077;28;20030;-39
2021/03/11 05:22:53;;;;;;;5.35;3.95;;;17.90;49.10;;;;;;5084203;28;20084;-39
2021/03/11 05:25:19;;;;;;;4.87;3.80;;;17.90;49.20;;;;;;5090632;28;20027;-39
2021/03/11 05:27:46;;;;;;;5.15;4.00;;;17.90;49.20;;;;;;5088440;28;20032;-39
2021/03/11 05:30:13;;;;;;;4.13;3.55;;;17.90;49.30;;;;;;5085601;28;20412;-40
2021/03/11 05:32:39;;;;;;;3.80;3.28;;;17.90;49.20;;;;;;5087855;28;20139;-39
2021/03/11 05:35:06;;;;;;;4.95;3.92;;;17.90;49.30;;;;;;5080755;28;20048;-39
2021/03/11 05:37:32;;;;;;;4.80;3.72;;;17.90;49.20;;;;;;5070497;28;20036;-40
2021/03/11 05:39:59;;;;;;;4.50;3.72;;;17.80;49.20;;;;;;5089784;28;20051;-39
2021/03/11 05:42:25;;;;;;;4.27;3.63;;;17.90;49.20;;;;;;5090128;28;20036;-39
2021/03/11 05:44:52;;;;;;;3.88;3.47;;;17.90;49.30;;;;;;5091687;28;20028;-39
2021/03/11 05:47:19;;;;;;;4.78;4.00;;;17.80;49.20;;;;;;5088467;28;20052;-40
2021/03/11 05:49:45;;;;;;;4.20;3.80;;;17.80;49.20;;;;;;5090157;28;20040;-39
2021/03/11 05:52:15;;;;;;;4.70;3.53;;;17.80;49.30;;;;;;5071114;28;20071;-39
2021/03/11 05:54:41;;;;;;;4.40;3.80;;;17.80;49.30;;;;;;5090596;28;20032;-44
2021/03/11 05:57:08;;;;;;;5.35;3.60;;;17.80;49.40;;;;;;5070715;28;20028;-39
2021/03/11 05:59:34;;;;;;;4.57;3.50;;;17.80;49.30;;;;;;5069722;28;20044;-39
2021/03/11 06:02:07;;;;;;;4.97;4.03;;;17.80;49.40;;;;;;5089034;28;20017;-39
2021/03/11 06:04:34;;;;;;;4.43;3.45;;;17.80;49.50;;;;;;5093244;28;20038;-39
2021/03/11 06:07:05;;;;;;;6.10;3.75;;;17.70;49.40;;;;;;5093483;28;20038;-39
2021/03/11 06:09:31;;;;;;;4.43;3.53;;;17.80;49.50;;;;;;5056652;28;20040;-42
2021/03/11 06:11:57;;;;;;;5.68;3.88;;;17.70;49.40;;;;;;5071452;28;20032;-39
2021/03/11 06:14:25;;;;;;;4.22;3.58;;;17.70;49.50;;;;;;5090474;28;20024;-39
2021/03/11 06:17:00;;;;;;;4.65;3.50;;;17.70;49.50;;;;;;5074301;28;20036;-39
2021/03/11 06:19:27;;;;;;;5.05;4.10;;;17.70;49.50;;;;;;5092578;28;20040;-39
2021/03/11 06:21:54;;;;;;;4.80;3.75;;;17.70;49.50;;;;;;5094759;28;20033;-39
2021/03/11 06:24:23;;;;;;;5.05;4.15;;;17.70;49.50;;;;;;5052861;28;20032;-39
2021/03/11 06:26:49;;;;;;;5.65;3.78;;;17.60;49.50;;;;;;5089963;28;20092;-39
2021/03/11 06:29:17;;;;;;;4.85;3.38;;;17.70;49.60;;;;;;5093457;28;20036;-39
2021/03/11 06:31:43;;;;;;;5.05;3.72;;;17.70;49.60;;;;;;5089015;28;20024;-40
2021/03/11 06:34:22;;;;;;;5.25;3.67;;;17.70;49.70;;;;;;5091664;28;20066;-39
2021/03/11 06:36:49;;;;;;;3.95;3.55;;;17.60;49.70;;;;;;5087679;28;20036;-39
2021/03/11 06:39:26;;;;;;;4.47;3.72;;;17.60;49.60;;;;;;5074233;28;20033;-39
2021/03/11 06:41:52;;;;;;;6.10;3.92;;;17.60;49.60;;;;;;5075745;28;20028;-39
2021/03/11 06:44:18;;;;;;;4.78;3.55;;;17.60;49.70;;;;;;5089504;28;20095;-39
2021/03/11 06:47:01;;;;;;;4.47;3.78;;;17.60;49.80;;;;;;5075054;28;20031;-39
2021/03/11 06:49:27;;;;;;;5.40;3.58;;;17.60;49.80;;;;;;5094412;28;20030;-39
2021/03/11 06:52:14;;;;;;;5.32;4.00;;;17.50;49.80;;;;;;5094204;28;20025;-39
2021/03/11 06:55:04;;;;;;;5.18;3.90;;;17.50;49.80;;;;;;5092970;28;20480;-39
2021/03/11 06:57:35;;;;;;;4.22;3.45;;;17.50;49.90;;;;;;5105522;28;20107;-39
2021/03/11 07:00:16;;;;;;;5.53;3.90;;;17.50;49.80;;;;;;5068563;28;20078;-39
2021/03/11 07:02:52;;;;;;;4.53;3.67;;;17.50;49.90;;;;;;5089417;28;20024;-39
2021/03/11 07:05:19;;;;;;;4.18;3.65;;;17.50;49.90;;;;;;5104160;28;20028;-39
2021/03/11 07:07:46;;;;;;;3.92;3.40;;;17.50;49.90;;;;;;5088350;28;20028;-39
2021/03/11 07:10:26;;;;;;;5.13;3.60;;;17.40;49.90;;;;;;5104463;28;20055;-39
2021/03/11 07:12:59;;;;;;;4.15;3.45;;;17.50;49.90;;;;;;5103111;28;20021;-40
2021/03/11 07:15:29;;;;;;;4.30;3.47;;;17.50;50.00;;;;;;5091281;28;20461;-40
2021/03/11 07:17:56;;;;;;;4.07;3.67;;;17.40;49.90;;;;;;5097320;28;20033;-40
2021/03/11 07:20:29;;;;;;;4.30;3.78;;;17.40;50.00;;;;;;5104622;28;20024;-46
2021/03/11 07:23:09;;;;;;;5.55;3.60;;;17.40;50.00;;;;;;5086504;28;20039;-40
2021/03/11 07:25:37;;;;;;;4.22;3.60;;;17.40;50.10;;;;;;5102297;28;20031;-39
2021/03/11 07:28:05;;;;;;;5.07;4.00;;;17.40;50.10;;;;;;5088454;28;20036;-39
2021/03/11 07:30:32;;;;;;;3.85;3.50;;;17.40;50.10;;;;;;5087483;28;20048;-39
2021/03/11 07:33:00;;;;;;;5.20;4.00;;;17.40;50.10;;;;;;5095611;28;20036;-39
2021/03/11 07:35:32;;;;;;;4.88;3.67;;;17.30;50.00;;;;;;5084964;28;20037;-39
2021/03/11 07:38:00;;;;;;;5.53;4.05;;;17.40;50.10;;;;;;5093741;28;20020;-39
2021/03/11 07:40:27;;;;;;;4.05;3.65;;;17.40;50.10;;;;;;5067169;28;20145;-39
2021/03/11 07:42:53;;;;;;;3.97;3.50;;;17.40;50.10;;;;;;5096126;28;20116;-40
2021/03/11 07:45:19;;;;;;;7.22;3.75;;;17.40;50.10;;;;;;5100209;28;20086;-39
2021/03/11 07:47:46;;;;;;;4.50;3.70;;;17.30;50.10;;;;;;5104440;28;20049;-39
2021/03/11 07:50:13;;;;;;;4.38;3.70;;;17.30;50.20;;;;;;5069536;28;20032;-39
2021/03/11 07:52:40;;;;;;;4.40;3.70;;;17.30;50.20;;;;;;5091765;28;20489;-40
2021/03/11 07:55:11;;;;;;;4.75;3.78;;;17.30;50.10;;;;;;5094554;28;20028;-39
2021/03/11 07:57:45;;;;;;;4.35;3.90;;;17.30;50.10;;;;;;5086567;28;20024;-39
2021/03/11 08:00:11;;;;;;;4.15;3.75;;;17.20;50.10;;;;;;5104022;28;20036;-39
2021/03/11 08:02:42;;;;;;;4.77;3.77;;;17.20;50.10;;;;;;5055032;28;20036;-39
2021/03/11 08:05:09;;;;;;;4.35;3.72;;;17.20;50.10;;;;;;5066425;28;20135;-39
2021/03/11 08:07:35;;;;;;;5.45;4.15;;;17.20;50.20;;;;;;5061496;28;20081;-39
2021/03/11 08:10:01;;;;;;;4.95;3.63;;;17.20;50.20;;;;;;5100675;28;20072;-39
2021/03/11 08:12:33;;;;;;;4.35;3.53;;;17.20;50.20;;;;;;5069458;28;20028;-39
2021/03/11 08:15:07;;;;;;;4.38;3.60;;;17.20;50.30;;;;;;5070184;28;20120;-39
2021/03/11 08:17:43;;;;;;;5.72;3.75;;;17.20;50.20;;;;;;5063796;28;20403;-39
2021/03/11 08:20:32;;;;;;;5.15;3.78;;;17.10;50.20;;;;;;5084432;28;20244;-39
2021/03/11 08:22:59;;;;;;;;;;;17.10;50.30;;;;;;5093594;28;20034;-39
2021/03/11 08:25:36;;;;;;;3.05;2.65;;;17.10;50.20;;;;;;5083795;28;19914;-39
2021/03/11 08:28:09;;;;;;;4.72;3.75;;;17.10;50.20;;;;;;5099411;28;20028;-39
2021/03/11 08:30:41;;;;;;;4.70;3.80;;;17.10;50.30;;;;;;5092462;28;20752;-39
2021/03/11 08:33:19;;;;;;;4.07;3.55;;;17.10;50.40;;;;;;5095005;28;20497;-39
2021/03/11 08:35:50;;;;;;;4.53;3.85;;;17.10;50.30;;;;;;5088131;28;20036;-39
2021/03/11 08:38:22;;;;;;;4.28;3.88;;;17.00;50.20;;;;;;5078277;28;20048;-39
2021/03/11 08:41:03;;;;;;;4.90;3.75;;;17.00;50.30;;;;;;5092849;28;20038;-39
2021/03/11 08:43:38;;;;;;;5.05;3.90;;;17.00;50.30;;;;;;5103310;28;20056;-39
2021/03/11 08:46:08;;;;;;;4.55;3.88;;;17.00;50.40;;;;;;5102035;28;20028;-39
2021/03/11 08:48:46;;;;;;;5.78;3.78;;;17.00;50.40;;;;;;5090803;28;20032;-39
2021/03/11 08:51:19;;;;;;;3.90;3.50;;;17.00;50.40;;;;;;5083677;28;20028;-39
2021/03/11 08:53:45;;;;;;;4.07;3.67;;;17.00;50.50;;;;;;5070829;28;20505;-39
2021/03/11 08:56:17;;;;;;;5.43;4.00;;;17.00;50.50;;;;;;5103449;28;20158;-39
2021/03/11 08:58:56;;;;;;;5.55;4.47;;;17.00;50.50;;;;;;5097816;28;20037;-39
2021/03/11 09:01:29;;;;;;;4.88;3.67;;;16.90;50.50;;;;;;5078544;28;20502;-39
2021/03/11 09:03:56;;;;;;;4.88;3.75;;;16.90;50.50;;;;;;5082790;28;20047;-39
2021/03/11 09:06:49;;;;;;;4.35;3.92;;;16.90;50.50;;;;;;5083047;28;20021;-39
2021/03/11 09:09:15;;;;;;;6.00;4.47;;;16.90;50.60;;;;;;5082554;28;20070;-39
2021/03/11 09:11:53;;;;;;;4.78;3.80;;;16.90;50.50;;;;;;5064587;28;20028;-39
2021/03/11 09:14:24;;;;;;;5.00;3.45;;;16.90;50.60;;;;;;5064892;28;20048;-39
2021/03/11 09:16:50;;;;;;;4.55;3.85;;;16.90;50.60;;;;;;5082676;28;20028;-39
2021/03/11 09:19:16;;;;;;;4.53;3.83;;;16.90;50.60;;;;;;5083760;28;20047;-39
2021/03/11 09:21:45;;;;;;;6.32;4.03;;;16.90;50.60;;;;;;5087246;28;20053;-39
2021/03/11 09:24:20;;;;;;;6.50;3.78;;;16.90;50.70;;;;;;5099820;28;20024;-39
2021/03/11 09:26:46;;;;;;;4.93;3.92;;;16.80;50.70;;;;;;5093052;28;20048;-39
2021/03/11 09:29:14;;;;;;;4.45;3.80;;;16.80;50.60;;;;;;5101522;28;20046;-39
2021/03/11 09:31:40;;;;;;;4.82;3.90;;;16.80;50.70;;;;;;5085449;28;20028;-39
2021/03/11 09:34:07;;;;;;;4.27;3.87;;;16.80;50.70;;;;;;5082506;28;20083;-39
2021/03/11 09:36:34;;;;;;;4.27;3.87;;;16.80;50.70;;;;;;5079981;28;20039;-39
2021/03/11 09:39:02;;;;;;;5.13;3.70;;;16.80;50.80;;;;;;5085877;28;20293;-39
2021/03/11 09:41:30;;;;;;;5.13;3.88;;;16.80;50.70;;;;;;5082047;28;20261;-39
2021/03/11 09:43:57;;;;;;;4.85;3.80;;;16.80;50.70;;;;;;5084696;28;20431;-39
2021/03/11 09:46:24;;;;;;;4.00;3.60;;;16.80;50.70;;;;;;5102435;28;20020;-38
2021/03/11 09:48:51;;;;;;;5.35;4.07;;;16.80;50.70;;;;;;5054429;28;20032;-39
2021/03/11 09:51:18;;;;;;;4.45;3.40;;;16.80;50.90;;;;;;5078389;28;20037;-39
2021/03/11 09:53:58;;;;;;;4.05;3.58;;;16.80;51.00;;;;;;5092274;28;20068;-39
2021/03/11 09:56:27;;;;;;;5.05;4.00;;;16.80;50.90;;;;;;5082511;28;20521;-39
2021/03/11 09:58:56;;;;;;;4.78;3.88;;;16.80;50.80;;;;;;5082374;28;20044;-39
2021/03/11 10:01:32;;;;;;;4.38;3.90;;;16.80;50.90;;;;;;5078377;28;20533;-39
2021/03/11 10:03:59;;;;;;;5.28;4.15;;;16.70;50.90;;;;;;5062507;28;20029;-39
2021/03/11 10:06:27;;;;;;;5.63;4.18;;;16.70;51.00;;;;;;5062274;28;20067;-38
2021/03/11 10:08:59;;;;;;;;;;;16.70;51.00;;;;;;5079082;28;20057;-39
2021/03/11 10:11:33;;;;;;;4.60;3.78;;;16.70;51.00;;;;;;5082261;28;20365;-39
2021/03/11 10:14:02;;;;;;;4.88;3.90;;;16.70;51.10;;;;;;5073993;28;20045;-39
2021/03/11 10:16:31;;;;;;;5.20;3.80;;;16.70;51.10;;;;;;5044329;28;20033;-39
2021/03/11 10:19:12;;;;;;;5.00;4.13;;;16.70;51.10;;;;;;5098905;28;20135;-42
2021/03/11 10:22:03;;;;;;;5.68;4.25;;;16.60;51.10;;;;;;5082570;28;20024;-39
2021/03/11 10:24:41;;;;;;;5.35;3.92;;;16.60;51.10;;;;;;5064253;28;20508;-39
2021/03/11 10:27:23;;;;;;;4.35;3.72;;;16.60;51.10;;;;;;5082058;28;20036;-39
2021/03/11 10:30:19;;;;;;;4.57;4.07;;;16.60;51.20;;;;;;5088291;28;20025;-40
2021/03/11 10:32:54;;;;;;;5.47;4.13;;;16.60;51.10;;;;;;5066580;28;20174;-39
2021/03/11 10:35:31;;;;;;;5.07;3.80;;;16.60;51.20;;;;;;5061948;28;20028;-39
2021/03/11 10:38:19;;;;;;;4.85;4.07;;;16.60;51.20;;;;;;5047909;28;20032;-39
2021/03/11 10:40:46;;;;;;;4.47;3.92;;;16.60;51.10;;;;;;5071041;28;20036;-39
2021/03/11 10:43:17;;;;;;;5.53;4.07;;;16.50;51.10;;;;;;5061646;28;20029;-39
2021/03/11 10:45:43;;;;;;;5.00;4.15;;;16.50;51.10;;;;;;5061781;28;20036;-39
2021/03/11 10:48:10;;;;;;;4.63;3.90;;;16.50;51.10;;;;;;5062952;28;20040;-39
2021/03/11 10:50:41;;;;;;;5.07;4.00;;;16.50;51.20;;;;;;5068386;28;20050;-39
2021/03/11 10:53:07;;;;;;;4.55;4.00;;;16.50;51.10;;;;;;5085513;28;20032;-39
2021/03/11 10:55:36;;;;;;;5.25;4.03;;;16.50;51.10;;;;;;5085572;28;20025;-39
2021/03/11 10:58:03;;;;;;;5.00;3.80;;;16.50;51.10;;;;;;5085585;28;20048;-39
2021/03/11 11:00:33;;;;;;;;;;;16.50;51.20;;;;;;5085887;28;20054;-39
2021/03/11 11:03:00;;;;;;;5.25;3.85;;;16.50;51.20;;;;;;5069223;28;19908;-39
2021/03/11 11:05:29;;;;;;;5.93;3.75;;;16.50;51.20;;;;;;5080632;28;20024;-39
2021/03/11 11:07:55;;;;;;;5.10;4.13;;;16.50;51.20;;;;;;5105751;28;20032;-39
2021/03/11 11:10:24;;;;;;;4.88;4.07;;;16.50;51.10;;;;;;5105543;28;20397;-39
2021/03/11 11:12:50;;;;;;;5.40;4.45;;;16.50;51.20;;;;;;5105344;28;20016;-39
2021/03/11 11:15:17;;;;;;;5.95;3.53;;;16.40;51.20;;;;;;5105600;28;20043;-38
2021/03/11 11:17:43;;;;;;;5.40;4.50;;;16.40;51.20;;;;;;5105498;28;20030;-39
2021/03/11 11:20:11;;;;;;;5.22;4.00;;;16.40;51.30;;;;;;5087113;28;20115;-39
2021/03/11 11:22:37;;;;;;;4.97;4.13;;;16.40;51.40;;;;;;5105381;28;20048;-39
2021/03/11 11:25:04;;;;;;;4.93;4.03;;;16.40;51.30;;;;;;5104034;28;20024;-38
2021/03/11 11:27:30;;;;;;;4.60;3.92;;;16.40;51.20;;;;;;5085062;28;20025;-39
2021/03/11 11:29:57;;;;;;;4.82;3.95;;;16.40;51.20;;;;;;5066996;28;20043;-39
2021/03/11 11:32:23;;;;;;;4.10;3.70;;;16.40;51.30;;;;;;5072156;28;20028;-38
2021/03/11 11:34:51;;;;;;;3.90;3.50;;;16.40;51.30;;;;;;5079932;28;20032;-38
2021/03/11 11:37:18;;;;;;;5.80;3.95;;;16.40;51.40;;;;;;5071462;28;20486;-39
2021/03/11 11:39:44;;;;;;;;;;;16.40;51.30;;;;;;5085207;28;20192;-39
2021/03/11 11:42:11;;;;;;;4.50;3.95;;;16.40;51.30;;;;;;5066716;28;19922;-39
2021/03/11 11:44:38;;;;;;;4.90;3.75;;;16.30;51.30;;;;;;5095723;28;20073;-39
2021/03/11 11:47:04;;;;;;;;;;;16.30;51.40;;;;;;5105299;28;20036;-39
2021/03/11 11:49:31;;;;;;;4.75;3.90;;;16.30;51.30;;;;;;5092516;28;19991;-40
2021/03/11 11:51:57;;;;;;;4.57;3.60;;;16.30;51.30;;;;;;5084592;28;20020;-38
2021/03/11 11:54:23;;;;;;;3.17;2.65;;;16.30;51.40;;;;;;5066281;28;20032;-39
2021/03/11 11:56:49;;;;;;;5.55;4.22;;;16.30;51.40;;;;;;5084487;28;20074;-39
2021/03/11 11:59:16;;;;;;;4.88;3.97;;;16.30;51.40;;;;;;5084351;28;20063;-39
2021/03/11 12:01:42;;;;;;;5.18;4.00;;;16.30;51.40;;;;;;5077239;28;20045;-38
2021/03/11 12:04:08;;;;;;;5.82;4.13;;;16.20;51.40;;;;;;5074462;28;20111;-38
2021/03/11 12:06:34;;;;;;;5.32;4.20;;;16.20;51.40;;;;;;5084290;28;20112;-39
2021/03/11 12:09:01;;;;;;;5.57;4.18;;;16.20;51.40;;;;;;5084842;28;20075;-39
2021/03/11 12:11:27;;;;;;;5.50;4.22;;;16.30;51.40;;;;;;5084132;28;20023;-39
2021/03/11 12:13:53;;;;;;;5.15;3.88;;;16.20;51.40;;;;;;5083882;28;20060;-38
2021/03/11 12:16:19;;;;;;;4.78;4.00;;;16.20;51.30;;;;;;5083988;28;20027;-39
2021/03/11 12:18:45;;;;;;;4.72;3.97;;;16.20;51.40;;;;;;5089958;28;20131;-38
2021/03/11 12:21:11;;;;;;;5.18;4.13;;;16.20;51.40;;;;;;5103941;28;20385;-39
2021/03/11 12:23:38;;;;;;;4.00;3.60;;;16.20;51.30;;;;;;5103950;28;20092;-38
2021/03/11 12:26:04;;;;;;;5.93;4.53;;;16.20;51.30;;;;;;5093085;28;20135;-39
2021/03/11 12:28:30;;;;;;;4.53;3.95;;;16.20;51.40;;;;;;5083844;28;20107;-39
2021/03/11 12:30:56;;;;;;;4.43;3.83;;;16.20;51.40;;;;;;5083059;28;20062;-38
2021/03/11 12:33:22;;;;;;;5.07;4.05;;;16.20;51.40;;;;;;5063576;28;20093;-38
2021/03/11 12:35:49;;;;;;;4.75;4.00;;;16.20;51.30;;;;;;5072035;28;20031;-39
2021/03/11 12:38:15;;;;;;;4.72;3.67;;;16.20;51.40;;;;;;5083581;28;20032;-39
2021/03/11 12:40:41;;;;;;;4.35;3.50;;;16.20;51.40;;;;;;5093970;28;20037;-38
2021/03/11 12:43:08;;;;;;;5.20;4.22;;;16.10;51.40;;;;;;5075092;28;20032;-38
2021/03/11 12:45:34;;;;;;;5.65;3.85;;;16.10;51.40;;;;;;5086411;28;20468;-38
2021/03/11 12:48:00;;;;;;;5.03;3.75;;;16.20;51.40;;;;;;5096693;28;20060;-38
2021/03/11 12:50:26;;;;;;;5.78;4.63;;;16.20;51.40;;;;;;5083754;28;20042;-38
2021/03/11 12:52:52;;;;;;;5.53;4.30;;;16.20;51.40;;;;;;5065469;28;20801;-39
2021/03/11 12:55:18;;;;;;;4.95;4.03;;;16.10;51.40;;;;;;5082940;28;20489;-38
2021/03/11 12:57:48;;;;;;;4.93;4.15;;;16.10;51.40;;;;;;5065185;28;20123;-38